Scarborough, United Kingdom
Current Conditions -  °F | °C
As of 9:50 PM on Tuesday 21 Oct 2014 (Local Time) from EGXV Reporting Station
Clear Clear  
Wind Chill: 39°   Ceiling: Unl
Heat Index: 45°   Visibility: 6mi
Dew Point: 34°   Wind: 10mph
Humidity: 66%   Direction: 280°W
Pressure: 29.91"   Gusts: NA
Location:  54.28°N, 0.4°W
Report Text: EGXV 212050Z AUTO 28009KT 9999 NCD 07/01 Q1013
Loading
Personal Weather Stations






























Interactive Weather Map New forecast layout! Learn more

10-Day Weather Forecast

Advertisements
Track Severe Weather on mobile